KCEF/CEF METAR and TAF weather

Enter ICAO airport designator
Station Type Date Time Source
KCEF METAR 2019/12/08 13:56 UTC NOAA

KCEF 081356Z 00000KT 10SM SCT250 M16/M19 A3053 RMK AO2A SLP350 T11651190


Station Type Date Time Source
KCEF Decoded METAR 2019/12/08 13:56 UTC NOAA

Chicopee Falls / Westover Air Force Base, MA, United States (KCEF) 42-12N 072-32W 75M
Dec 08, 2019 - 08:56 AM EST / 2019.12.08 1356 UTC
Wind: Calm:0
Visibility: 10 mile(s):0
Sky conditions: partly cloudy
Temperature: 2.3 F (-16.5 C)
Dew Point: -2.2 F (-19.0 C)
Relative Humidity: 80%
Pressure (altimeter): 30.53 in. Hg (1033 hPa)
ob: KCEF 081356Z 00000KT 10SM SCT250 M16/M19 A3053 RMK AO2A SLP350 T11651190
cycle: 14

Station Type Date Time Source
KCEF TAF 2019/12/08 11:06 UTC NOAA

TAF TAF KCEF 081100Z 0811/0917 18006KT 9999 BKN250 QNH3039INS
BECMG 0816/0817 19012KT 9999 BKN180 QNH3032INS
BECMG 0821/0822 19009KT 9999 SCT020 BKN180 WS020/21035KT QNH3029INS
BECMG 0900/0901 20009KT 9999 BKN015 BKN200 WS015/21035KT QNH3022INS
BECMG 0908/0909 03006KT 1600 -DZ BR BKN007 OVC010 WS010/22035KT 660503 QNH3014INS
BECMG 0913/0914 17006KT 4800 -RA BR SCT007 OVC010 WS015/21040KT 620809 540157 QNH3004INS TX02/0819Z TNM20/0812Z

Example: see airport list